createdAt,value
2023-05-06T00:00:56.628Z,99.05
2023-05-06T00:01:58.097Z,99.98
2023-05-06T00:03:02.321Z,97.39
2023-05-06T00:04:03.968Z,98.07
2023-05-06T00:05:06.011Z,95.32
2023-05-06T00:06:09.073Z,95.65
2023-05-06T00:07:10.507Z,96.90
2023-05-06T00:08:12.279Z,98.48
2023-05-06T00:09:13.724Z,98.24
2023-05-06T00:10:15.772Z,99.56
2023-05-06T00:11:17.214Z,100.00
2023-05-06T00:12:18.662Z,97.63
2023-05-06T00:13:20.291Z,97.29
2023-05-06T00:14:21.721Z,97.63
2023-05-06T00:15:23.186Z,98.74
2023-05-06T00:16:24.659Z,100.00
2023-05-06T00:17:26.179Z,100.00
2023-05-06T00:18:27.641Z,100.00
2023-05-06T00:19:29.097Z,100.00
2023-05-06T00:20:31.324Z,100.00
2023-05-06T00:21:32.793Z,100.00
2023-05-06T00:22:34.247Z,100.00
2023-05-06T00:23:35.674Z,100.00
2023-05-06T00:24:37.084Z,100.00
2023-05-06T00:25:38.537Z,100.00
2023-05-06T00:26:39.967Z,100.00
2023-05-06T00:27:41.372Z,100.00
2023-05-06T00:28:42.791Z,100.00
2023-05-06T00:29:44.217Z,98.59
2023-05-06T00:30:45.654Z,98.44
2023-05-06T00:31:47.127Z,98.46
2023-05-06T00:32:48.711Z,99.38
2023-05-06T00:33:50.181Z,99.46
2023-05-06T00:34:51.651Z,99.70
2023-05-06T00:35:53.221Z,99.33
2023-05-06T00:36:54.686Z,98.92
2023-05-06T00:37:58.601Z,98.33
2023-05-06T00:39:00.181Z,98.37
2023-05-06T00:40:02.535Z,98.94
2023-05-06T00:41:04.102Z,98.60
2023-05-06T00:42:05.591Z,98.39
2023-05-06T00:43:07.342Z,99.30
2023-05-06T00:44:08.751Z,99.94
2023-05-06T00:45:10.851Z,99.89
2023-05-06T00:46:16.551Z,100.00
2023-05-06T00:47:18.935Z,100.00
2023-05-06T00:48:20.735Z,100.00
2023-05-06T00:49:23.244Z,100.00
2023-05-06T00:50:25.551Z,99.08
2023-05-06T00:51:27.449Z,99.69
2023-05-06T00:52:28.916Z,99.91
2023-05-06T00:53:30.493Z,99.96
2023-05-06T00:54:32.043Z,99.28
2023-05-06T00:55:33.719Z,100.00
2023-05-06T00:56:35.293Z,100.00
2023-05-06T00:57:37.373Z,99.70
2023-05-06T00:58:38.812Z,100.00
2023-05-06T00:59:40.336Z,100.00
2023-05-06T01:00:42.327Z,100.00
2023-05-06T01:01:43.689Z,100.00
2023-05-06T01:02:47.844Z,99.64
2023-05-06T01:03:49.831Z,100.00
2023-05-06T01:04:51.704Z,100.00
2023-05-06T01:06:11.684Z,99.09
2023-05-06T01:07:26.627Z,100.00
2023-05-06T01:08:41.904Z,100.00
2023-05-06T01:10:03.044Z,100.00
2023-05-06T01:11:15.805Z,100.00
2023-05-06T01:12:27.561Z,100.00
2023-05-06T01:13:52.197Z,99.76
2023-05-06T01:15:16.672Z,99.35
2023-05-06T01:16:23.281Z,99.18
2023-05-06T01:17:28.212Z,99.91
2023-05-06T01:18:32.344Z,100.00
2023-05-06T01:19:42.277Z,100.00
2023-05-06T01:20:47.664Z,99.46
2023-05-06T01:21:54.665Z,99.91
2023-05-06T01:22:56.549Z,100.00
2023-05-06T01:23:58.680Z,100.00
2023-05-06T01:25:00.203Z,100.00
2023-05-06T01:26:01.637Z,100.00
2023-05-06T01:27:03.135Z,100.00
2023-05-06T01:28:07.405Z,99.76
2023-05-06T01:29:08.865Z,99.14
2023-05-06T01:30:10.959Z,100.00
2023-05-06T01:31:17.274Z,100.00
2023-05-06T01:32:44.832Z,100.00
2023-05-06T01:33:46.228Z,100.00
2023-05-06T01:35:03.315Z,100.00
2023-05-06T01:36:24.285Z,100.00
2023-05-06T01:37:47.382Z,100.00
2023-05-06T01:39:07.645Z,100.00
2023-05-06T01:40:10.065Z,100.00
2023-05-06T01:41:15.720Z,100.00
2023-05-06T01:42:18.207Z,100.00
2023-05-06T01:43:21.960Z,100.00
2023-05-06T01:44:24.814Z,100.00
2023-05-06T01:45:30.504Z,100.00
2023-05-06T01:46:32.936Z,100.00
2023-05-06T01:47:36.012Z,100.00
2023-05-06T01:48:39.350Z,100.00
2023-05-06T01:49:41.092Z,100.00
2023-05-06T01:50:43.582Z,100.00
2023-05-06T01:51:53.073Z,99.40
2023-05-06T01:53:01.493Z,100.00
2023-05-06T01:54:03.274Z,100.00
2023-05-06T01:55:05.460Z,100.00
2023-05-06T01:56:07.263Z,100.00
2023-05-06T01:57:08.698Z,100.00
2023-05-06T01:58:10.124Z,99.53
2023-05-06T01:59:11.566Z,100.00
2023-05-06T02:00:13.101Z,100.00
2023-05-06T02:01:14.548Z,99.69
2023-05-06T02:02:16.083Z,100.00
2023-05-06T02:03:17.655Z,100.00
2023-05-06T02:04:19.146Z,100.00
2023-05-06T02:05:20.675Z,100.00
2023-05-06T02:06:22.133Z,100.00
2023-05-06T02:07:23.584Z,100.00
2023-05-06T02:08:25.035Z,100.00
2023-05-06T02:09:26.525Z,100.00
2023-05-06T02:10:27.965Z,100.00
2023-05-06T02:11:29.480Z,100.00
2023-05-06T02:12:30.986Z,100.00
2023-05-06T02:13:32.432Z,100.00
2023-05-06T02:14:33.929Z,100.00
2023-05-06T02:15:35.399Z,100.00
2023-05-06T02:16:36.831Z,100.00
2023-05-06T02:17:38.686Z,100.00
2023-05-06T02:18:41.372Z,100.00
2023-05-06T02:19:42.776Z,100.00
2023-05-06T02:20:44.160Z,100.00
2023-05-06T02:21:45.608Z,100.00
2023-05-06T02:22:47.045Z,100.00
2023-05-06T02:23:48.486Z,100.00
2023-05-06T02:24:49.885Z,100.00
2023-05-06T02:25:51.778Z,100.00
2023-05-06T02:26:53.181Z,100.00
2023-05-06T02:27:54.615Z,100.00
2023-05-06T02:28:56.014Z,100.00
2023-05-06T02:29:57.421Z,100.00
2023-05-06T02:30:58.923Z,100.00
2023-05-06T02:32:00.538Z,100.00
2023-05-06T02:33:02.760Z,100.00
2023-05-06T02:34:05.037Z,100.00
2023-05-06T02:35:07.394Z,100.00
2023-05-06T02:36:08.977Z,100.00
2023-05-06T02:37:10.418Z,100.00
2023-05-06T02:38:11.825Z,100.00
2023-05-06T02:39:13.290Z,100.00
2023-05-06T02:40:14.921Z,100.00
2023-05-06T02:41:16.337Z,100.00
2023-05-06T02:42:17.940Z,100.00
2023-05-06T02:43:19.392Z,100.00
2023-05-06T02:44:20.801Z,100.00
2023-05-06T02:45:22.237Z,100.00
2023-05-06T02:46:23.777Z,100.00
2023-05-06T02:47:25.257Z,100.00
2023-05-06T02:48:26.826Z,100.00
2023-05-06T02:49:28.242Z,100.00
2023-05-06T02:50:29.640Z,100.00
2023-05-06T02:51:31.189Z,100.00
2023-05-06T02:52:33.348Z,100.00
2023-05-06T02:53:34.807Z,100.00
2023-05-06T02:54:36.312Z,100.00
2023-05-06T02:55:37.700Z,100.00
2023-05-06T02:56:39.094Z,100.00
2023-05-06T02:57:40.488Z,100.00
2023-05-06T02:58:41.946Z,100.00
2023-05-06T02:59:43.358Z,100.00
2023-05-06T03:00:44.857Z,100.00
2023-05-06T03:01:46.248Z,100.00
2023-05-06T03:02:47.745Z,100.00
2023-05-06T03:03:49.199Z,100.00
2023-05-06T03:04:50.900Z,100.00
2023-05-06T03:05:52.312Z,100.00
2023-05-06T03:06:53.803Z,100.00
2023-05-06T03:07:55.374Z,100.00
2023-05-06T03:08:57.176Z,100.00
2023-05-06T03:09:58.664Z,100.00
2023-05-06T03:11:00.192Z,100.00
2023-05-06T03:12:02.150Z,100.00
2023-05-06T03:13:03.580Z,100.00
2023-05-06T03:14:05.138Z,100.00
2023-05-06T03:15:07.182Z,100.00
2023-05-06T03:16:13.492Z,100.00
2023-05-06T03:17:15.168Z,100.00
2023-05-06T03:18:16.560Z,100.00
2023-05-06T03:19:17.998Z,100.00
2023-05-06T03:20:20.406Z,100.00
2023-05-06T03:21:21.857Z,100.00
2023-05-06T03:22:23.301Z,100.00
2023-05-06T03:23:24.676Z,100.00
2023-05-06T03:24:26.131Z,100.00
2023-05-06T03:25:27.540Z,100.00
2023-05-06T03:26:28.983Z,100.00
2023-05-06T03:27:30.493Z,100.00
2023-05-06T03:28:32.058Z,100.00
2023-05-06T03:29:33.484Z,100.00
2023-05-06T03:30:34.916Z,100.00
2023-05-06T03:31:36.469Z,100.00
2023-05-06T03:32:38.208Z,100.00
2023-05-06T03:33:39.683Z,100.00
2023-05-06T03:34:41.089Z,100.00
2023-05-06T03:35:42.542Z,100.00
2023-05-06T03:36:43.997Z,100.00
2023-05-06T03:37:45.427Z,100.00
2023-05-06T03:38:46.866Z,100.00
2023-05-06T03:39:48.365Z,100.00
2023-05-06T03:40:50.089Z,100.00
2023-05-06T03:41:51.519Z,100.00
2023-05-06T03:42:52.932Z,100.00
2023-05-06T03:43:55.677Z,100.00
2023-05-06T03:44:57.088Z,100.00
2023-05-06T03:45:58.929Z,100.00
2023-05-06T03:47:00.564Z,100.00
2023-05-06T03:48:01.988Z,100.00
2023-05-06T03:49:03.514Z,100.00
2023-05-06T03:50:05.467Z,100.00
2023-05-06T03:51:06.990Z,100.00
2023-05-06T03:52:08.528Z,100.00
2023-05-06T03:53:09.979Z,100.00
2023-05-06T03:54:11.388Z,100.00
2023-05-06T03:55:12.862Z,100.00
2023-05-06T03:56:14.349Z,100.00
2023-05-06T03:57:16.059Z,100.00
2023-05-06T03:58:17.466Z,100.00
2023-05-06T03:59:18.945Z,100.00
2023-05-06T04:00:20.755Z,100.00
2023-05-06T04:01:22.201Z,100.00
2023-05-06T04:02:23.962Z,100.00
2023-05-06T04:03:25.617Z,100.00
2023-05-06T04:04:27.322Z,100.00
2023-05-06T04:05:28.794Z,100.00
2023-05-06T04:06:30.323Z,100.00
2023-05-06T04:07:31.755Z,100.00
2023-05-06T04:08:33.206Z,100.00
2023-05-06T04:09:34.717Z,100.00
2023-05-06T04:10:40.336Z,100.00
2023-05-06T04:11:41.716Z,100.00
2023-05-06T04:12:43.161Z,100.00
2023-05-06T04:13:44.667Z,100.00
2023-05-06T04:14:46.060Z,100.00
2023-05-06T04:15:48.728Z,100.00
2023-05-06T04:16:50.484Z,100.00
2023-05-06T04:17:52.021Z,100.00
2023-05-06T04:18:53.647Z,100.00
2023-05-06T04:19:55.488Z,100.00
2023-05-06T04:20:56.986Z,100.00
2023-05-06T04:21:58.603Z,100.00
2023-05-06T04:23:00.021Z,100.00
2023-05-06T04:24:01.422Z,100.00
2023-05-06T04:25:03.021Z,100.00
2023-05-06T04:26:05.509Z,100.00
2023-05-06T04:27:07.437Z,100.00
2023-05-06T04:28:10.778Z,100.00
2023-05-06T04:29:12.477Z,100.00
2023-05-06T04:30:14.046Z,100.00
2023-05-06T04:31:15.584Z,100.00
2023-05-06T04:32:17.990Z,100.00
2023-05-06T04:33:19.565Z,100.00
2023-05-06T04:34:21.059Z,100.00
2023-05-06T04:35:23.460Z,100.00
2023-05-06T04:36:24.956Z,100.00
2023-05-06T04:37:28.311Z,100.00
2023-05-06T04:38:30.512Z,100.00
2023-05-06T04:39:32.015Z,100.00
2023-05-06T04:40:36.449Z,100.00
2023-05-06T04:41:38.060Z,100.00
2023-05-06T04:42:39.499Z,99.86
2023-05-06T04:43:41.431Z,100.00
2023-05-06T04:44:43.452Z,100.00
2023-05-06T04:45:49.587Z,100.00
2023-05-06T04:46:51.280Z,100.00
2023-05-06T04:47:53.177Z,100.00
2023-05-06T04:48:55.016Z,100.00
2023-05-06T04:49:57.088Z,100.00
2023-05-06T04:50:58.560Z,99.84
2023-05-06T04:52:00.000Z,98.78
2023-05-06T04:53:01.476Z,99.60
2023-05-06T04:54:03.041Z,99.05
2023-05-06T04:55:04.898Z,100.00
2023-05-06T04:56:06.850Z,99.21
2023-05-06T04:57:08.282Z,99.59
2023-05-06T04:58:09.740Z,99.70
2023-05-06T04:59:11.204Z,100.00
2023-05-06T05:00:12.920Z,99.88
2023-05-06T05:01:14.379Z,100.00
2023-05-06T05:02:15.972Z,98.53
2023-05-06T05:03:17.596Z,98.65
2023-05-06T05:04:19.109Z,99.86
2023-05-06T05:05:20.864Z,99.36
2023-05-06T05:06:22.391Z,99.43
2023-05-06T05:07:23.863Z,99.42
2023-05-06T05:08:25.296Z,99.40
2023-05-06T05:09:26.718Z,98.67
2023-05-06T05:10:28.164Z,99.07
2023-05-06T05:11:29.571Z,99.12
2023-05-06T05:12:31.254Z,99.94
2023-05-06T05:13:32.671Z,99.48
2023-05-06T05:14:34.082Z,99.13
2023-05-06T05:15:35.461Z,100.00
2023-05-06T05:16:37.145Z,100.00
2023-05-06T05:17:38.732Z,99.14
2023-05-06T05:18:40.164Z,99.44
2023-05-06T05:19:41.571Z,99.75
2023-05-06T05:20:42.987Z,99.46
2023-05-06T05:21:44.400Z,98.63
2023-05-06T05:22:45.843Z,98.82
2023-05-06T05:23:47.236Z,97.64
2023-05-06T05:24:48.670Z,97.61
2023-05-06T05:25:50.193Z,98.81
2023-05-06T05:26:51.662Z,99.04
2023-05-06T05:27:53.185Z,99.39
2023-05-06T05:28:54.621Z,99.24
2023-05-06T05:29:56.622Z,99.65
2023-05-06T05:31:01.963Z,99.73
2023-05-06T05:32:03.510Z,98.60
2023-05-06T05:33:05.012Z,98.75
2023-05-06T05:34:06.636Z,99.49
2023-05-06T05:35:10.598Z,99.44
2023-05-06T05:36:15.150Z,98.92
2023-05-06T05:37:16.593Z,98.09
2023-05-06T05:38:18.071Z,97.40
2023-05-06T05:39:19.508Z,98.72
2023-05-06T05:40:21.024Z,98.27
2023-05-06T05:41:22.538Z,97.80
2023-05-06T05:42:24.029Z,98.42
2023-05-06T05:43:26.889Z,100.00
2023-05-06T05:44:28.349Z,100.00
2023-05-06T05:45:29.821Z,100.00
2023-05-06T05:46:31.588Z,98.69
2023-05-06T05:47:33.095Z,97.70
2023-05-06T05:48:34.913Z,98.86
2023-05-06T05:49:36.337Z,98.85
2023-05-06T05:50:37.775Z,98.74
2023-05-06T05:51:39.238Z,100.00
2023-05-06T05:52:40.913Z,99.71
2023-05-06T05:53:42.524Z,99.07
2023-05-06T05:54:43.957Z,98.80
2023-05-06T05:55:45.330Z,97.92
2023-05-06T05:56:46.753Z,99.23
2023-05-06T05:57:48.175Z,98.45
2023-05-06T05:58:49.797Z,98.18
2023-05-06T05:59:51.196Z,97.54
2023-05-06T06:00:52.652Z,97.86
2023-05-06T06:01:54.125Z,98.37
2023-05-06T06:02:55.649Z,97.40
2023-05-06T06:03:58.063Z,97.57
2023-05-06T06:04:59.855Z,98.46
2023-05-06T06:06:01.417Z,99.27
2023-05-06T06:07:02.903Z,98.79
2023-05-06T06:08:04.788Z,97.71
2023-05-06T06:09:06.458Z,98.42
2023-05-06T06:10:08.609Z,97.65
2023-05-06T06:11:10.008Z,98.34
2023-05-06T06:12:11.439Z,97.66
2023-05-06T06:13:13.459Z,97.05
2023-05-06T06:14:14.807Z,97.19
2023-05-06T06:15:16.224Z,98.70
2023-05-06T06:16:17.704Z,97.21
2023-05-06T06:17:19.225Z,96.78
2023-05-06T06:18:20.724Z,96.13
2023-05-06T06:19:22.161Z,95.33
2023-05-06T06:20:23.547Z,96.54
2023-05-06T06:21:25.046Z,97.69
2023-05-06T06:22:26.442Z,96.63
2023-05-06T06:23:27.846Z,98.13
2023-05-06T06:24:29.303Z,97.53
2023-05-06T06:25:30.860Z,96.48
2023-05-06T06:26:32.296Z,97.14
2023-05-06T06:27:36.843Z,97.77
2023-05-06T06:28:39.250Z,98.08
2023-05-06T06:29:40.747Z,96.84
2023-05-06T06:30:42.128Z,97.47
2023-05-06T06:31:43.564Z,97.25
2023-05-06T06:32:53.786Z,96.54
2023-05-06T06:33:55.225Z,97.55
2023-05-06T06:34:56.643Z,97.64
2023-05-06T06:35:58.380Z,95.97
2023-05-06T06:36:59.855Z,97.45
2023-05-06T06:38:01.546Z,97.10
2023-05-06T06:39:03.390Z,98.05
2023-05-06T06:40:05.465Z,97.44
2023-05-06T06:41:07.216Z,98.00
2023-05-06T06:42:08.602Z,97.87
2023-05-06T06:43:10.010Z,98.70
2023-05-06T06:44:11.558Z,98.46
2023-05-06T06:45:13.931Z,99.21
2023-05-06T06:46:15.621Z,98.31
2023-05-06T06:47:17.134Z,99.07
2023-05-06T06:48:18.903Z,99.11
2023-05-06T06:49:20.324Z,97.74
2023-05-06T06:50:21.879Z,98.11
2023-05-06T06:51:23.344Z,97.25
2023-05-06T06:52:24.885Z,98.38
2023-05-06T06:53:26.322Z,98.75
2023-05-06T06:54:27.817Z,97.54
2023-05-06T06:55:29.249Z,96.52
2023-05-06T06:56:31.789Z,96.95
2023-05-06T06:57:33.232Z,95.47
2023-05-06T06:58:34.617Z,96.32
2023-05-06T06:59:36.024Z,96.31
2023-05-06T07:00:37.733Z,96.97
2023-05-06T07:01:41.476Z,96.99
2023-05-06T07:02:43.090Z,95.78
2023-05-06T07:03:44.566Z,96.98
2023-05-06T07:04:46.076Z,96.55
2023-05-06T07:05:48.122Z,97.66
2023-05-06T07:06:49.452Z,96.71
2023-05-06T07:07:50.887Z,97.38
2023-05-06T07:08:52.360Z,97.80
2023-05-06T07:09:53.790Z,97.67
2023-05-06T07:10:55.502Z,95.55
2023-05-06T07:11:58.510Z,97.64
2023-05-06T07:12:59.971Z,95.36
2023-05-06T07:14:01.450Z,97.02
2023-05-06T07:15:06.765Z,96.19
2023-05-06T07:16:08.236Z,96.03
2023-05-06T07:17:09.646Z,95.79
2023-05-06T07:18:11.218Z,96.24
2023-05-06T07:19:12.706Z,96.33
2023-05-06T07:20:14.154Z,96.22
2023-05-06T07:21:15.579Z,96.13
2023-05-06T07:22:17.025Z,95.40
2023-05-06T07:23:18.448Z,95.08
2023-05-06T07:24:19.866Z,96.17
2023-05-06T07:25:21.256Z,95.73
2023-05-06T07:26:22.666Z,95.39
2023-05-06T07:27:24.180Z,95.92
2023-05-06T07:28:25.805Z,96.05
2023-05-06T07:29:27.276Z,95.88
2023-05-06T07:30:28.841Z,96.48
2023-05-06T07:31:32.894Z,95.44
2023-05-06T07:32:34.328Z,94.48
2023-05-06T07:33:35.807Z,94.03
2023-05-06T07:34:37.261Z,94.47
2023-05-06T07:35:38.696Z,94.59
2023-05-06T07:36:40.862Z,95.59
2023-05-06T07:37:42.373Z,95.84
2023-05-06T07:38:43.784Z,94.26
2023-05-06T07:39:45.387Z,95.14
2023-05-06T07:40:46.795Z,96.70
2023-05-06T07:41:48.208Z,95.65
2023-05-06T07:42:49.669Z,96.13
2023-05-06T07:43:51.292Z,95.09
2023-05-06T07:44:52.675Z,94.23
2023-05-06T07:46:02.126Z,93.88
2023-05-06T07:47:03.843Z,94.43
2023-05-06T07:48:05.886Z,95.44
2023-05-06T07:49:07.272Z,96.31
2023-05-06T07:50:09.007Z,93.92
2023-05-06T07:51:10.561Z,95.68
2023-05-06T07:52:11.993Z,94.98
2023-05-06T07:53:13.860Z,96.01
2023-05-06T07:54:15.356Z,94.97
2023-05-06T07:55:16.920Z,93.80
2023-05-06T07:56:18.440Z,93.51
2023-05-06T07:57:19.860Z,96.22
2023-05-06T07:58:21.285Z,95.26
2023-05-06T07:59:23.469Z,94.53
2023-05-06T08:00:24.891Z,95.81
2023-05-06T08:01:28.933Z,94.72
2023-05-06T08:02:31.946Z,95.08
2023-05-06T08:03:33.548Z,95.34
2023-05-06T08:04:35.893Z,93.81
2023-05-06T08:05:37.413Z,94.47
2023-05-06T08:06:39.007Z,93.58
2023-05-06T08:07:41.838Z,95.76
2023-05-06T08:08:43.282Z,96.18
2023-05-06T08:09:44.996Z,95.13
2023-05-06T08:10:46.441Z,95.34
2023-05-06T08:11:48.121Z,95.36
2023-05-06T08:12:49.594Z,95.00
2023-05-06T08:13:51.137Z,96.29
2023-05-06T08:14:54.731Z,96.42
2023-05-06T08:15:56.196Z,95.98
2023-05-06T08:16:57.671Z,96.74
2023-05-06T08:18:07.045Z,96.09
2023-05-06T08:19:15.911Z,96.14
2023-05-06T08:20:17.332Z,98.20
2023-05-06T08:21:18.729Z,97.58
2023-05-06T08:22:20.181Z,97.29
2023-05-06T08:23:21.749Z,98.02
2023-05-06T08:24:23.162Z,97.29
2023-05-06T08:25:24.581Z,97.72
2023-05-06T08:26:26.111Z,97.93
2023-05-06T08:27:27.494Z,98.00
2023-05-06T08:28:29.349Z,97.26
2023-05-06T08:29:30.779Z,97.52
2023-05-06T08:30:32.223Z,97.91
2023-05-06T08:31:33.856Z,98.27
2023-05-06T08:32:35.721Z,97.35
2023-05-06T08:33:37.230Z,98.21
2023-05-06T08:34:38.729Z,98.28
2023-05-06T08:35:40.969Z,98.09
2023-05-06T08:36:42.614Z,98.56
2023-05-06T08:37:44.078Z,98.38
2023-05-06T08:38:50.481Z,97.82
2023-05-06T08:39:51.942Z,97.72
2023-05-06T08:40:54.678Z,98.36
2023-05-06T08:41:57.910Z,97.89
2023-05-06T08:42:59.906Z,98.84
2023-05-06T08:44:01.956Z,98.62
2023-05-06T08:45:03.641Z,99.37
2023-05-06T08:46:05.136Z,99.08
2023-05-06T08:47:06.769Z,100.00
2023-05-06T08:48:09.140Z,98.22
2023-05-06T08:49:10.936Z,99.50
2023-05-06T08:50:12.769Z,99.96
2023-05-06T08:51:17.874Z,99.42
2023-05-06T08:52:21.297Z,99.25
2023-05-06T08:53:22.970Z,99.85
2023-05-06T08:54:27.460Z,99.46
2023-05-06T08:55:30.772Z,99.91
2023-05-06T08:56:33.481Z,100.00
2023-05-06T08:57:35.513Z,98.55
2023-05-06T08:58:38.588Z,98.29
2023-05-06T08:59:41.508Z,98.12
2023-05-06T09:00:43.546Z,99.36
2023-05-06T09:01:44.948Z,99.44
2023-05-06T09:02:46.569Z,98.39
2023-05-06T09:03:48.781Z,100.00
2023-05-06T09:04:52.289Z,100.00
2023-05-06T09:05:54.217Z,98.58
2023-05-06T09:06:57.794Z,99.06
2023-05-06T09:07:59.242Z,99.27
2023-05-06T09:09:00.798Z,98.80
2023-05-06T09:10:06.698Z,98.71
2023-05-06T09:11:29.234Z,99.89
2023-05-06T09:12:30.750Z,99.56
2023-05-06T09:13:32.256Z,98.39
2023-05-06T09:14:33.650Z,100.00
2023-05-06T09:15:42.681Z,99.57
2023-05-06T09:16:47.242Z,99.20
2023-05-06T09:17:48.727Z,98.61
2023-05-06T09:18:50.168Z,98.80
2023-05-06T09:19:59.254Z,98.64
2023-05-06T09:21:04.283Z,99.46
2023-05-06T09:22:06.029Z,97.84
2023-05-06T09:23:09.438Z,99.13
2023-05-06T09:24:12.836Z,98.16
2023-05-06T09:25:14.700Z,98.86
2023-05-06T09:26:16.327Z,98.22
2023-05-06T09:27:17.760Z,98.22
2023-05-06T09:28:19.228Z,97.41
2023-05-06T09:29:20.911Z,97.79
2023-05-06T09:30:22.338Z,97.37
2023-05-06T09:31:25.968Z,98.70
2023-05-06T09:32:28.461Z,97.83
2023-05-06T09:33:29.944Z,98.13
2023-05-06T09:34:31.426Z,98.18
2023-05-06T09:35:43.263Z,98.39
2023-05-06T09:36:45.233Z,98.39
2023-05-06T09:37:46.849Z,98.48
2023-05-06T09:38:48.296Z,98.70
2023-05-06T09:39:53.338Z,97.94
2023-05-06T09:40:55.315Z,96.81
2023-05-06T09:41:56.764Z,97.23
2023-05-06T09:42:58.367Z,98.18
2023-05-06T09:43:59.818Z,98.25
2023-05-06T09:45:02.341Z,98.58
2023-05-06T09:46:06.022Z,97.41
2023-05-06T09:47:07.585Z,95.65
2023-05-06T09:48:09.702Z,96.93
2023-05-06T09:49:11.938Z,96.77
2023-05-06T09:50:14.024Z,97.25
2023-05-06T09:51:15.902Z,96.81
2023-05-06T09:52:19.312Z,97.09
2023-05-06T09:53:22.186Z,94.59
2023-05-06T09:54:24.606Z,95.44
2023-05-06T09:55:27.396Z,96.03
2023-05-06T09:56:31.096Z,95.90
2023-05-06T09:57:33.309Z,94.94
2023-05-06T09:58:35.951Z,94.53
2023-05-06T09:59:38.008Z,93.61
2023-05-06T10:00:39.858Z,92.62
2023-05-06T10:01:41.938Z,93.14
2023-05-06T10:02:45.745Z,93.05
2023-05-06T10:03:48.961Z,92.63
2023-05-06T10:04:51.114Z,91.90
2023-05-06T10:05:54.424Z,93.09
2023-05-06T10:06:56.671Z,92.15
2023-05-06T10:07:58.986Z,92.07
2023-05-06T10:09:01.821Z,94.48
2023-05-06T10:10:04.558Z,93.70
2023-05-06T10:11:06.924Z,92.07
2023-05-06T10:12:08.945Z,92.86
2023-05-06T10:13:10.531Z,93.71
2023-05-06T10:14:12.041Z,94.15
2023-05-06T10:15:13.660Z,93.43
2023-05-06T10:16:15.937Z,94.91
2023-05-06T10:17:18.970Z,94.11
2023-05-06T10:18:21.797Z,92.83
2023-05-06T10:19:25.767Z,93.39
2023-05-06T10:20:30.271Z,93.25
2023-05-06T10:21:35.870Z,95.30
2023-05-06T10:22:47.667Z,94.67
2023-05-06T10:23:57.295Z,94.58
2023-05-06T10:25:06.252Z,93.82
2023-05-06T10:26:11.289Z,95.52
2023-05-06T10:27:14.002Z,94.54
2023-05-06T10:28:19.534Z,95.36
2023-05-06T10:29:35.428Z,94.95
2023-05-06T10:30:38.869Z,95.29
2023-05-06T10:31:49.017Z,93.53
2023-05-06T10:32:52.558Z,93.71
2023-05-06T10:33:54.806Z,93.53
2023-05-06T10:34:58.626Z,93.06
2023-05-06T10:36:07.749Z,92.94
2023-05-06T10:37:11.521Z,93.78
2023-05-06T10:38:37.667Z,95.40
2023-05-06T10:39:42.232Z,94.32
2023-05-06T10:40:44.531Z,93.64
2023-05-06T10:41:47.839Z,94.42
2023-05-06T10:42:49.273Z,94.32
2023-05-06T10:43:56.558Z,94.57
2023-05-06T10:45:06.087Z,92.95
2023-05-06T10:46:18.210Z,93.85
2023-05-06T10:47:19.918Z,94.68
2023-05-06T10:48:21.330Z,95.95
2023-05-06T10:49:22.780Z,94.78
2023-05-06T10:50:27.964Z,94.68
2023-05-06T10:51:29.531Z,94.44
2023-05-06T10:52:58.872Z,94.43
2023-05-06T10:54:11.054Z,94.09
2023-05-06T10:55:36.415Z,94.09
2023-05-06T10:56:47.947Z,93.42
2023-05-06T10:57:55.630Z,93.98
2023-05-06T10:58:57.828Z,95.69
2023-05-06T10:59:59.399Z,95.85
2023-05-06T11:01:00.853Z,94.86
2023-05-06T11:02:02.217Z,94.16
2023-05-06T11:03:23.914Z,96.76
2023-05-06T11:04:25.762Z,96.28
2023-05-06T11:05:27.408Z,95.85
2023-05-06T11:06:32.920Z,95.56
2023-05-06T11:07:34.385Z,95.29
2023-05-06T11:08:36.076Z,95.81
2023-05-06T11:10:00.846Z,95.02
2023-05-06T11:11:45.664Z,94.93
2023-05-06T11:12:52.747Z,93.94
2023-05-06T11:13:54.382Z,94.38
2023-05-06T11:15:19.488Z,94.14
2023-05-06T11:16:49.926Z,94.06
2023-05-06T11:17:53.094Z,93.91
2023-05-06T11:18:55.415Z,94.50
2023-05-06T11:20:26.614Z,95.75
2023-05-06T11:21:31.002Z,94.58
2023-05-06T11:22:39.603Z,93.51
2023-05-06T11:23:46.913Z,94.02
2023-05-06T11:24:48.450Z,94.48
2023-05-06T11:25:51.237Z,94.57
2023-05-06T11:26:53.227Z,94.10
2023-05-06T11:27:55.938Z,94.17
2023-05-06T11:29:02.071Z,94.32
2023-05-06T11:30:04.708Z,94.34
2023-05-06T11:31:07.836Z,94.45
2023-05-06T11:32:22.206Z,95.11
2023-05-06T11:33:27.571Z,95.53
2023-05-06T11:34:30.982Z,95.48
2023-05-06T11:35:36.796Z,93.63
2023-05-06T11:36:49.525Z,93.33
2023-05-06T11:37:52.113Z,93.45
2023-05-06T11:38:54.196Z,93.54
2023-05-06T11:39:55.536Z,93.45
2023-05-06T11:40:56.948Z,92.62
2023-05-06T11:42:00.116Z,95.14
2023-05-06T11:43:14.965Z,93.18
2023-05-06T11:44:27.407Z,94.14
2023-05-06T11:45:40.661Z,94.66
2023-05-06T11:46:43.812Z,95.12
2023-05-06T11:47:45.591Z,93.86
2023-05-06T11:48:47.158Z,94.14
2023-05-06T11:49:53.199Z,94.59
2023-05-06T11:50:55.685Z,94.38
2023-05-06T11:51:57.249Z,94.45
2023-05-06T11:52:58.692Z,95.18
2023-05-06T11:54:08.674Z,94.39
2023-05-06T11:55:11.275Z,93.94
2023-05-06T11:56:12.707Z,94.13
2023-05-06T11:57:14.184Z,95.54
2023-05-06T11:58:17.474Z,94.34
2023-05-06T11:59:34.871Z,92.71
2023-05-06T12:00:36.255Z,91.86
2023-05-06T12:01:39.166Z,92.15
2023-05-06T12:02:41.022Z,94.56
2023-05-06T12:03:42.581Z,93.61
2023-05-06T12:04:49.904Z,92.92
2023-05-06T12:05:52.271Z,92.81
2023-05-06T12:06:55.512Z,92.48
2023-05-06T12:07:57.064Z,91.67
2023-05-06T12:08:58.632Z,92.48
2023-05-06T12:10:04.041Z,92.35
2023-05-06T12:11:07.984Z,92.28
2023-05-06T12:12:11.056Z,91.04
2023-05-06T12:13:12.935Z,92.67
2023-05-06T12:14:14.700Z,92.33
2023-05-06T12:15:16.611Z,93.42
2023-05-06T12:16:18.286Z,93.94
2023-05-06T12:17:20.126Z,93.39
2023-05-06T12:18:23.327Z,92.82
2023-05-06T12:19:24.958Z,93.63
2023-05-06T12:20:26.671Z,92.86
2023-05-06T12:21:29.290Z,93.75
2023-05-06T12:22:30.800Z,93.67
2023-05-06T12:23:32.434Z,91.92
2023-05-06T12:24:33.941Z,92.45
2023-05-06T12:25:35.438Z,93.35
2023-05-06T12:26:45.765Z,93.62
2023-05-06T12:27:47.230Z,92.66
2023-05-06T12:29:06.068Z,93.04
2023-05-06T12:30:09.257Z,94.03
2023-05-06T12:31:21.510Z,91.16
2023-05-06T12:32:23.094Z,93.79
2023-05-06T12:33:24.704Z,92.42
2023-05-06T12:34:36.447Z,93.56
2023-05-06T12:35:39.711Z,93.46
2023-05-06T12:36:42.797Z,92.53
2023-05-06T12:37:44.201Z,93.82
2023-05-06T12:39:00.711Z,92.58
2023-05-06T12:40:02.346Z,93.41
2023-05-06T12:41:04.331Z,92.75
2023-05-06T12:42:06.305Z,92.73
2023-05-06T12:43:08.484Z,91.41
2023-05-06T12:44:32.713Z,92.49
2023-05-06T12:45:34.213Z,92.46
2023-05-06T12:46:35.646Z,92.46
2023-05-06T12:47:37.157Z,92.44
2023-05-06T12:48:38.938Z,92.62
2023-05-06T12:50:00.580Z,92.99
2023-05-06T12:51:17.960Z,94.25
2023-05-06T12:52:21.922Z,95.24
2023-05-06T12:53:34.740Z,92.30
2023-05-06T12:54:36.744Z,91.39
2023-05-06T12:55:38.503Z,90.69
2023-05-06T12:56:39.949Z,91.29
2023-05-06T12:57:41.346Z,92.64
2023-05-06T12:58:42.788Z,92.02
2023-05-06T12:59:48.021Z,90.14
2023-05-06T13:00:49.469Z,91.88
2023-05-06T13:01:50.884Z,90.01
2023-05-06T13:02:52.383Z,92.21
2023-05-06T13:03:58.379Z,91.37
2023-05-06T13:04:59.813Z,91.81
2023-05-06T13:06:01.281Z,91.65
2023-05-06T13:07:03.038Z,92.10
2023-05-06T13:08:04.638Z,92.20
2023-05-06T13:09:06.451Z,90.72
2023-05-06T13:10:08.655Z,92.26
2023-05-06T13:11:10.686Z,90.64
2023-05-06T13:12:12.081Z,90.56
2023-05-06T13:13:13.657Z,91.52
2023-05-06T13:14:15.090Z,90.05
2023-05-06T13:15:16.644Z,89.66
2023-05-06T13:16:18.215Z,91.67
2023-05-06T13:17:19.855Z,89.88
2023-05-06T13:18:22.056Z,90.92
2023-05-06T13:19:32.179Z,92.36
2023-05-06T13:20:34.634Z,92.15
2023-05-06T13:21:37.738Z,90.30
2023-05-06T13:22:51.046Z,90.46
2023-05-06T13:23:55.628Z,90.98
2023-05-06T13:24:57.036Z,90.00
2023-05-06T13:26:04.721Z,90.39